Time;durP1;ratioP1;P1;durP2;ratioP2;P2;SDS_P1;SDS_P2;PMS_P1;PMS_P2;Temp;Humidity;BMP_temperature;BMP_pressure;BME280_temperature;BME280_humidity;BME280_pressure;Samples;Min_cycle;Max_cycle;Signal;HPM_P1;HPM_P2
2023/11/17 00:00:19;;;;;;;6.67;4.40;;;7.80;99.90;;;;;;4993793;28;20573;-75
2023/11/17 00:02:46;;;;;;;5.30;4.37;;;7.80;99.90;;;;;;4993851;28;20212;-74
2023/11/17 00:05:12;;;;;;;4.70;4.20;;;7.80;99.90;;;;;;4993642;28;20171;-74
2023/11/17 00:07:37;;;;;;;4.50;3.40;;;7.70;99.90;;;;;;5008454;28;20422;-74
2023/11/17 00:10:04;;;;;;;4.77;3.90;;;7.70;99.90;;;;;;4993536;28;20805;-75
2023/11/17 00:12:30;;;;;;;4.87;4.23;;;7.70;99.90;;;;;;4990873;28;20268;-75
2023/11/17 00:14:55;;;;;;;3.90;3.60;;;7.70;99.90;;;;;;4991823;28;20840;-74
2023/11/17 00:17:22;;;;;;;3.60;3.30;;;7.70;99.90;;;;;;4992279;28;20195;-75
2023/11/17 00:19:48;;;;;;;3.33;2.73;;;7.80;99.90;;;;;;4992528;28;20211;-75
2023/11/17 00:22:13;;;;;;;2.37;2.17;;;7.60;99.90;;;;;;4989713;28;20406;-73
2023/11/17 00:24:39;;;;;;;2.83;2.63;;;7.50;99.90;;;;;;4973825;28;20172;-74
2023/11/17 00:27:05;;;;;;;2.73;2.50;;;7.50;99.90;;;;;;4974291;28;20230;-74
2023/11/17 00:29:31;;;;;;;2.73;2.53;;;7.50;99.90;;;;;;4986296;28;20507;-71
2023/11/17 00:31:56;;;;;;;4.70;3.03;;;7.60;99.90;;;;;;4993433;28;20547;-75
2023/11/17 00:34:22;;;;;;;2.83;2.63;;;7.60;99.90;;;;;;4993578;28;20199;-75
2023/11/17 00:36:47;;;;;;;3.03;2.57;;;7.50;99.90;;;;;;4993410;28;20171;-74
2023/11/17 00:39:16;;;;;;;1.90;1.80;;;7.60;99.90;;;;;;4993232;28;20213;-74
2023/11/17 00:41:42;;;;;;;2.70;2.30;;;7.60;99.90;;;;;;4993277;28;20188;-74
2023/11/17 00:44:09;;;;;;;2.60;2.40;;;7.50;99.90;;;;;;4993257;28;20403;-74
2023/11/17 00:46:34;;;;;;;3.30;2.47;;;7.50;99.90;;;;;;4993911;28;20400;-70
2023/11/17 00:49:03;;;;;;;2.30;2.10;;;7.60;99.90;;;;;;4993205;28;20798;-71
2023/11/17 00:51:29;;;;;;;2.90;2.50;;;7.60;99.90;;;;;;4993228;28;20249;-71
2023/11/17 00:54:00;;;;;;;1.73;1.57;;;7.60;99.90;;;;;;4993531;28;20423;-70
2023/11/17 00:56:28;;;;;;;2.63;1.80;;;7.60;99.90;;;;;;4993054;28;20414;-70
2023/11/17 00:58:54;;;;;;;1.73;1.60;;;7.40;99.90;;;;;;4993141;28;20502;-70
2023/11/17 01:01:22;;;;;;;4.67;1.43;;;7.40;99.90;;;;;;4993038;28;20558;-71
2023/11/17 01:03:48;;;;;;;2.33;1.40;;;7.40;99.90;;;;;;4993164;28;20168;-72
2023/11/17 01:06:14;;;;;;;2.60;1.87;;;7.40;99.90;;;;;;4993128;28;20482;-71
2023/11/17 01:08:39;;;;;;;2.13;1.53;;;7.40;99.90;;;;;;4993337;28;20174;-71
2023/11/17 01:11:05;;;;;;;2.07;1.43;;;7.30;99.90;;;;;;4993143;28;20525;-71
2023/11/17 01:13:31;;;;;;;2.03;1.40;;;7.30;99.90;;;;;;4993222;28;20180;-70
2023/11/17 01:15:56;;;;;;;1.50;1.30;;;7.30;99.90;;;;;;4993053;28;20408;-71
2023/11/17 01:18:22;;;;;;;2.03;1.47;;;7.40;99.90;;;;;;4993304;28;20171;-70
2023/11/17 01:20:48;;;;;;;3.40;1.70;;;7.30;99.90;;;;;;4995026;28;20206;-71
2023/11/17 01:23:13;;;;;;;1.63;1.30;;;7.30;99.90;;;;;;4996509;28;20270;-71
2023/11/17 01:25:40;;;;;;;1.50;1.17;;;7.40;99.90;;;;;;4996510;28;20655;-70
2023/11/17 01:28:06;;;;;;;1.10;1.00;;;7.30;99.90;;;;;;4997196;28;20193;-71
2023/11/17 01:30:32;;;;;;;1.83;1.50;;;7.30;99.90;;;;;;4996303;28;20787;-70
2023/11/17 01:32:58;;;;;;;1.60;1.50;;;7.30;99.90;;;;;;4996247;28;20501;-72
2023/11/17 01:35:24;;;;;;;2.23;1.57;;;7.40;99.90;;;;;;4996295;28;20489;-70
2023/11/17 01:37:50;;;;;;;1.77;1.63;;;7.40;99.90;;;;;;4996262;28;20657;-70
2023/11/17 01:40:17;;;;;;;1.83;1.73;;;7.60;99.90;;;;;;4995933;28;20499;-70
2023/11/17 01:42:43;;;;;;;2.23;2.03;;;7.60;99.90;;;;;;4996283;28;20164;-71
2023/11/17 01:45:09;;;;;;;2.03;1.80;;;7.50;99.90;;;;;;4996121;28;20498;-71
2023/11/17 01:47:39;;;;;;;3.10;2.10;;;7.40;99.90;;;;;;4996304;28;20415;-72
2023/11/17 01:50:09;;;;;;;5.60;2.60;;;7.40;99.90;;;;;;4995944;28;20741;-71
2023/11/17 01:52:35;;;;;;;2.50;2.27;;;7.40;99.90;;;;;;4996160;28;20418;-70
2023/11/17 01:55:05;;;;;;;3.90;2.50;;;7.30;99.90;;;;;;4995955;28;20788;-70
2023/11/17 01:57:35;;;;;;;2.73;1.50;;;7.20;99.90;;;;;;4995865;28;20910;-69
2023/11/17 02:00:06;;;;;;;4.33;2.20;;;7.30;99.90;;;;;;4996014;28;20462;-71
2023/11/17 02:02:35;;;;;;;2.17;1.73;;;7.30;99.90;;;;;;4995696;28;20395;-69
2023/11/17 02:05:01;;;;;;;5.10;2.20;;;7.40;99.90;;;;;;4995711;28;20505;-70
2023/11/17 02:07:36;;;;;;;2.50;2.30;;;7.40;99.90;;;;;;4995687;28;21027;-70
2023/11/17 02:10:35;;;;;;;2.40;2.20;;;7.40;99.90;;;;;;4995244;28;20825;-70
2023/11/17 02:13:39;;;;;;;2.80;2.60;;;7.50;99.90;;;;;;4988101;28;20395;-71
2023/11/17 02:16:11;;;;;;;3.00;2.10;;;7.50;99.90;;;;;;4996809;28;20419;-71
2023/11/17 02:18:40;;;;;;;2.70;2.20;;;7.40;99.90;;;;;;4976635;28;20445;-71
2023/11/17 02:21:07;;;;;;;3.40;3.10;;;7.40;99.90;;;;;;4976207;28;20449;-71
2023/11/17 02:23:34;;;;;;;3.80;1.90;;;7.50;99.90;;;;;;4987602;28;20407;-70
2023/11/17 02:26:24;;;;;;;3.87;2.60;;;7.50;99.90;;;;;;4995652;28;20442;-71
2023/11/17 02:29:00;;;;;;;3.07;2.40;;;7.50;99.90;;;;;;4995282;28;20391;-71
2023/11/17 02:31:32;;;;;;;2.80;2.47;;;7.50;99.90;;;;;;4995796;28;20871;-71
2023/11/17 02:34:04;;;;;;;2.40;2.20;;;7.60;99.90;;;;;;4994889;28;20407;-71
2023/11/17 02:36:32;;;;;;;4.57;3.80;;;7.70;99.90;;;;;;4995749;28;20426;-70
2023/11/17 02:39:13;;;;;;;4.37;3.97;;;7.60;99.90;;;;;;4995174;28;20471;-71
2023/11/17 02:41:56;;;;;;;4.20;3.80;;;7.50;99.90;;;;;;4995277;28;20465;-72
2023/11/17 02:44:22;;;;;;;3.97;3.57;;;7.60;99.90;;;;;;4995011;28;20890;-71
2023/11/17 02:46:58;;;;;;;5.10;4.00;;;7.70;99.90;;;;;;4995092;28;20430;-71
2023/11/17 02:49:29;;;;;;;5.20;3.70;;;7.70;99.90;;;;;;4994751;28;20434;-70
2023/11/17 02:52:03;;;;;;;5.30;4.70;;;7.90;99.90;;;;;;4994553;28;20479;-70
2023/11/17 02:54:30;;;;;;;4.57;3.87;;;8.00;99.90;;;;;;4995055;28;20774;-71
2023/11/17 02:56:58;;;;;;;6.00;4.53;;;8.00;99.90;;;;;;4994732;28;20399;-70
2023/11/17 02:59:24;;;;;;;4.60;4.20;;;8.10;99.90;;;;;;4994886;28;20427;-71
2023/11/17 03:01:52;;;;;;;6.90;4.63;;;8.10;99.90;;;;;;4994570;28;20451;-71
2023/11/17 03:04:18;;;;;;;6.50;4.00;;;8.10;99.90;;;;;;4994597;28;20180;-71
2023/11/17 03:06:48;;;;;;;6.10;4.87;;;8.10;99.90;;;;;;4994541;28;20412;-71
2023/11/17 03:09:22;;;;;;;5.17;4.30;;;8.10;99.90;;;;;;4994551;28;20279;-70
2023/11/17 03:11:49;;;;;;;5.63;4.33;;;8.10;99.90;;;;;;4994810;28;20422;-70
2023/11/17 03:14:15;;;;;;;4.83;3.07;;;8.00;99.90;;;;;;4994330;28;20916;-71
2023/11/17 03:16:41;;;;;;;3.87;3.57;;;8.00;99.90;;;;;;4994873;28;20422;-69
2023/11/17 03:19:10;;;;;;;3.93;3.53;;;7.80;99.90;;;;;;4994324;28;20618;-70
2023/11/17 03:21:42;;;;;;;3.13;2.93;;;7.80;99.90;;;;;;4994218;28;20457;-70
2023/11/17 03:24:14;;;;;;;3.80;3.50;;;7.80;99.90;;;;;;4994216;28;20399;-68
2023/11/17 03:26:42;;;;;;;3.90;3.30;;;7.90;99.90;;;;;;4994526;28;20419;-70
2023/11/17 03:29:08;;;;;;;4.80;2.80;;;7.90;99.90;;;;;;4994418;28;20429;-71
2023/11/17 03:31:33;;;;;;;3.30;2.97;;;8.00;99.90;;;;;;4994264;28;20781;-70
2023/11/17 03:34:01;;;;;;;3.80;3.40;;;7.90;99.90;;;;;;4994292;28;20218;-70
2023/11/17 03:36:26;;;;;;;3.43;3.13;;;7.90;99.90;;;;;;4994277;28;20643;-70
2023/11/17 03:41:22;;;;;;;3.20;2.53;;;8.00;99.90;;;;;;5035778;22;20226;-74
2023/11/17 03:43:50;;;;;;;3.13;2.67;;;7.90;99.90;;;;;;5013370;28;20231;-75
2023/11/17 03:46:16;;;;;;;3.20;2.13;;;7.90;99.90;;;;;;4995965;28;20406;-75
2023/11/17 03:48:42;;;;;;;2.50;2.30;;;7.80;99.90;;;;;;5013402;28;20494;-75
2023/11/17 03:51:08;;;;;;;3.10;1.70;;;7.80;99.90;;;;;;5013400;28;20194;-75
2023/11/17 03:53:35;;;;;;;2.60;2.40;;;7.70;99.90;;;;;;5013338;28;20175;-75
2023/11/17 03:56:01;;;;;;;2.80;1.83;;;7.60;99.90;;;;;;5013518;28;20406;-75
2023/11/17 03:58:27;;;;;;;3.70;2.57;;;7.50;99.90;;;;;;5013357;28;20411;-76
2023/11/17 04:00:53;;;;;;;2.20;2.00;;;7.70;99.90;;;;;;5013251;28;20594;-76
2023/11/17 04:03:19;;;;;;;2.07;1.50;;;7.80;99.90;;;;;;5004990;28;20172;-75
2023/11/17 04:05:45;;;;;;;1.90;1.53;;;7.90;99.90;;;;;;4993788;28;20161;-76
2023/11/17 04:08:16;;;;;;;2.23;1.50;;;7.90;99.90;;;;;;4993895;28;20517;-76
2023/11/17 04:10:45;;;;;;;1.73;1.63;;;7.90;99.90;;;;;;4976179;28;20438;-76
2023/11/17 04:13:11;;;;;;;2.50;1.73;;;8.10;99.90;;;;;;4983278;28;20473;-76
2023/11/17 04:15:37;;;;;;;2.80;1.97;;;8.10;99.90;;;;;;5013617;28;20827;-76
2023/11/17 04:18:03;;;;;;;2.87;1.73;;;8.10;99.90;;;;;;4995261;28;20418;-75
2023/11/17 04:20:29;;;;;;;3.73;1.90;;;7.90;99.90;;;;;;5013422;28;20191;-76
2023/11/17 04:22:55;;;;;;;2.87;1.80;;;7.80;99.90;;;;;;5008798;28;20408;-75
2023/11/17 04:25:22;;;;;;;1.50;1.40;;;8.00;99.90;;;;;;4993828;28;20165;-75
2023/11/17 04:27:48;;;;;;;2.90;1.90;;;8.00;99.90;;;;;;4976207;28;20430;-75
2023/11/17 04:30:14;;;;;;;2.80;1.70;;;8.00;99.90;;;;;;5010275;28;20438;-75
2023/11/17 04:32:39;;;;;;;3.90;2.47;;;8.10;99.90;;;;;;5010624;28;20180;-75
2023/11/17 04:35:06;;;;;;;4.57;2.40;;;8.00;99.90;;;;;;4993414;28;20198;-75
2023/11/17 04:37:31;;;;;;;2.27;2.03;;;7.90;99.90;;;;;;4993438;28;20166;-75
2023/11/17 04:39:57;;;;;;;2.50;2.07;;;7.90;99.90;;;;;;4993058;28;21055;-75
2023/11/17 04:42:23;;;;;;;2.43;2.23;;;7.90;99.90;;;;;;4976033;28;20176;-75
2023/11/17 04:44:48;;;;;;;2.30;2.07;;;8.00;99.90;;;;;;5013348;28;20161;-75
2023/11/17 04:47:14;;;;;;;2.03;1.83;;;8.10;99.90;;;;;;5012860;28;20203;-75
2023/11/17 04:49:40;;;;;;;2.27;2.07;;;8.10;99.90;;;;;;5013151;28;20180;-75
2023/11/17 04:52:05;;;;;;;4.33;2.37;;;7.90;99.90;;;;;;5009942;28;20817;-75
2023/11/17 04:54:31;;;;;;;2.87;2.10;;;7.80;99.90;;;;;;4995706;28;20195;-75
2023/11/17 04:56:56;;;;;;;1.73;1.50;;;8.00;99.90;;;;;;4997390;28;20241;-75
2023/11/17 04:59:22;;;;;;;1.73;1.63;;;8.20;99.90;;;;;;4997125;28;20260;-75
2023/11/17 05:01:48;;;;;;;2.03;1.93;;;8.30;99.90;;;;;;4979528;28;20200;-75
2023/11/17 05:04:13;;;;;;;2.40;2.20;;;8.30;99.90;;;;;;5012002;28;20229;-76
2023/11/17 05:06:39;;;;;;;1.83;1.73;;;8.30;99.90;;;;;;5016744;28;20646;-75
2023/11/17 05:09:12;;;;;;;2.23;1.67;;;8.10;99.90;;;;;;5016613;28;20540;-75
2023/11/17 05:11:41;;;;;;;1.87;1.70;;;7.90;99.90;;;;;;5017216;28;20244;-75
2023/11/17 05:14:07;;;;;;;1.90;1.50;;;8.10;99.90;;;;;;5002485;28;20404;-75
2023/11/17 05:16:37;;;;;;;2.20;2.00;;;8.00;99.90;;;;;;4996863;28;20412;-75
2023/11/17 05:19:06;;;;;;;1.90;1.70;;;8.10;99.90;;;;;;4996648;28;20168;-75
2023/11/17 05:21:32;;;;;;;2.43;1.80;;;8.00;99.90;;;;;;4996517;28;20444;-75
2023/11/17 05:23:59;;;;;;;4.87;2.50;;;8.10;99.90;;;;;;5008949;28;20437;-76
2023/11/17 05:26:25;;;;;;;3.73;2.30;;;8.10;99.90;;;;;;5016341;28;20406;-75
2023/11/17 05:28:51;;;;;;;4.50;2.27;;;8.10;99.90;;;;;;5015938;28;20405;-75
2023/11/17 05:31:20;;;;;;;2.70;1.83;;;8.10;99.90;;;;;;5016491;28;20246;-75
2023/11/17 05:33:46;;;;;;;3.50;1.80;;;8.30;99.90;;;;;;5005041;28;20169;-75
2023/11/17 05:36:13;;;;;;;2.10;1.90;;;8.00;99.90;;;;;;4985444;28;20423;-75
2023/11/17 05:38:38;;;;;;;2.27;2.07;;;7.90;99.90;;;;;;5015734;28;20187;-74
2023/11/17 05:41:05;;;;;;;2.30;1.43;;;7.80;99.90;;;;;;5016056;28;20517;-76
2023/11/17 05:43:31;;;;;;;5.73;5.13;;;7.70;99.90;;;;;;5008096;28;20477;-77
2023/11/17 05:46:00;;;;;;;2.40;2.00;;;7.60;99.90;;;;;;5006192;28;20184;-76
2023/11/17 05:48:25;;;;;;;11.00;9.87;;;7.60;99.90;;;;;;5006206;28;20677;-76
2023/11/17 05:50:51;;;;;;;2.40;1.90;;;7.70;99.90;;;;;;5005961;28;20438;-77
2023/11/17 05:53:16;;;;;;;8.87;7.13;;;7.50;99.90;;;;;;5009187;28;20610;-76
2023/11/17 05:55:42;;;;;;;4.40;3.60;;;7.70;99.90;;;;;;4997809;28;20223;-75
2023/11/17 05:58:07;;;;;;;3.53;2.90;;;7.80;99.90;;;;;;5015709;28;20172;-75
2023/11/17 06:00:33;;;;;;;3.10;2.27;;;8.00;99.90;;;;;;5015319;28;20203;-76
2023/11/17 06:02:59;;;;;;;5.23;3.20;;;8.00;99.90;;;;;;4997783;28;20171;-75
2023/11/17 06:05:25;;;;;;;2.83;2.10;;;8.00;99.90;;;;;;5015442;28;20420;-75
2023/11/17 06:07:51;;;;;;;4.17;2.53;;;7.70;99.90;;;;;;5015193;28;20172;-76
2023/11/17 06:10:16;;;;;;;3.30;1.63;;;7.90;99.90;;;;;;4997376;28;20446;-76
2023/11/17 06:12:42;;;;;;;5.60;5.10;;;8.10;99.90;;;;;;5013565;28;20410;-76
2023/11/17 06:15:10;;;;;;;4.73;3.03;;;8.20;99.90;;;;;;4996127;28;20204;-76
2023/11/17 06:17:35;;;;;;;2.30;1.70;;;8.10;99.90;;;;;;5004792;28;20172;-76
2023/11/17 06:20:03;;;;;;;3.40;3.10;;;8.10;99.90;;;;;;5014931;28;20466;-76
2023/11/17 06:22:29;;;;;;;2.50;2.30;;;8.00;99.90;;;;;;5015205;28;20167;-76
2023/11/17 06:24:55;;;;;;;3.00;2.00;;;8.20;99.90;;;;;;4995395;28;20430;-76
2023/11/17 06:27:23;;;;;;;3.60;2.00;;;8.20;99.90;;;;;;4995113;28;20407;-76
2023/11/17 06:29:49;;;;;;;2.00;1.80;;;8.30;99.90;;;;;;4995170;28;20812;-75
2023/11/17 06:32:15;;;;;;;3.60;2.37;;;8.30;99.90;;;;;;4980932;28;20518;-76
2023/11/17 06:34:40;;;;;;;3.23;2.33;;;8.30;99.90;;;;;;4997773;28;20174;-76
2023/11/17 06:37:07;;;;;;;2.60;2.40;;;8.20;99.90;;;;;;4995610;28;20406;-76
2023/11/17 06:39:32;;;;;;;5.70;5.20;;;8.20;99.90;;;;;;4994879;28;20205;-76
2023/11/17 06:41:58;;;;;;;3.63;2.93;;;8.20;99.90;;;;;;4995334;28;20854;-76
2023/11/17 06:44:25;;;;;;;5.13;2.43;;;8.20;99.90;;;;;;5009704;28;20178;-77
2023/11/17 06:46:51;;;;;;;2.80;2.50;;;8.20;99.90;;;;;;4993664;28;20171;-77
2023/11/17 06:49:19;;;;;;;3.63;2.50;;;8.00;99.90;;;;;;5014358;28;20419;-76
2023/11/17 06:51:48;;;;;;;3.57;3.00;;;7.90;99.90;;;;;;5014483;28;20434;-77
2023/11/17 06:54:13;;;;;;;3.40;2.63;;;8.10;99.90;;;;;;5001116;28;20486;-76
2023/11/17 06:56:42;;;;;;;3.47;2.87;;;8.30;99.90;;;;;;4994695;28;20413;-76
2023/11/17 06:59:09;;;;;;;3.70;3.03;;;8.40;99.90;;;;;;4994605;28;20204;-76
2023/11/17 07:01:35;;;;;;;3.07;2.70;;;8.40;99.90;;;;;;4977087;28;20455;-76
2023/11/17 07:04:02;;;;;;;3.53;3.03;;;8.50;99.90;;;;;;5005963;28;20437;-76
2023/11/17 07:06:28;;;;;;;4.50;2.93;;;8.50;99.90;;;;;;5014354;28;20754;-76
2023/11/17 07:08:54;;;;;;;6.10;3.30;;;8.50;99.90;;;;;;5014191;28;20417;-76
2023/11/17 07:11:20;;;;;;;3.80;2.27;;;8.50;99.90;;;;;;5014311;28;20407;-76
2023/11/17 07:13:45;;;;;;;3.50;2.40;;;8.40;99.90;;;;;;5004617;28;20264;-76
2023/11/17 07:16:12;;;;;;;3.67;3.03;;;8.40;99.90;;;;;;4976901;28;20180;-76
2023/11/17 07:18:38;;;;;;;4.10;3.27;;;8.50;99.90;;;;;;4993648;28;20178;-77
2023/11/17 07:21:04;;;;;;;4.00;3.10;;;8.50;99.90;;;;;;4994173;28;20452;-76
2023/11/17 07:23:30;;;;;;;5.20;3.47;;;8.50;99.90;;;;;;5001218;28;20408;-77
2023/11/17 07:25:55;;;;;;;5.20;3.37;;;8.50;99.90;;;;;;4996435;28;20406;-75
2023/11/17 07:28:21;;;;;;;3.73;2.77;;;8.50;99.90;;;;;;5014105;28;20179;-77
2023/11/17 07:30:48;;;;;;;3.83;3.17;;;8.40;99.90;;;;;;5013866;28;20231;-76
2023/11/17 07:33:16;;;;;;;3.83;3.17;;;8.20;99.90;;;;;;5009391;28;20419;-76
2023/11/17 07:35:42;;;;;;;3.77;3.20;;;7.90;99.90;;;;;;4993922;28;20446;-76
2023/11/17 07:38:08;;;;;;;5.10;3.60;;;7.90;99.90;;;;;;4995014;28;20418;-78
2023/11/17 07:40:34;;;;;;;5.27;3.47;;;8.10;99.90;;;;;;4994047;28;20208;-77
2023/11/17 07:43:00;;;;;;;6.33;3.57;;;8.10;99.90;;;;;;4996652;28;20801;-76
2023/11/17 07:45:25;;;;;;;3.73;2.93;;;8.00;99.90;;;;;;5013753;28;20554;-75
2023/11/17 07:47:51;;;;;;;4.33;3.73;;;8.10;99.90;;;;;;4997356;28;20242;-77
2023/11/17 07:50:19;;;;;;;4.40;2.90;;;8.00;99.90;;;;;;5015017;28;20685;-75
2023/11/17 07:52:44;;;;;;;4.20;2.50;;;8.10;99.90;;;;;;5013244;28;20164;-75
2023/11/17 07:55:13;;;;;;;3.50;3.20;;;8.10;99.90;;;;;;4976921;28;20486;-77
2023/11/17 07:57:42;;;;;;;7.10;3.00;;;8.10;99.90;;;;;;4995300;28;20172;-77
2023/11/17 08:00:18;;;;;;;5.00;3.17;;;8.10;99.90;;;;;;4995693;28;20539;-76
2023/11/17 08:02:44;;;;;;;5.03;2.93;;;8.10;99.90;;;;;;4994423;28;20378;-73
2023/11/17 08:05:11;;;;;;;5.67;3.17;;;8.30;99.90;;;;;;5013234;28;20485;-75
2023/11/17 08:07:37;;;;;;;5.50;3.53;;;8.40;99.90;;;;;;5012943;28;20480;-77
2023/11/17 08:10:06;;;;;;;5.13;3.10;;;8.30;99.90;;;;;;5012878;28;20434;-73
2023/11/17 08:12:32;;;;;;;5.00;3.40;;;8.40;99.90;;;;;;4995523;28;20417;-77
2023/11/17 08:14:58;;;;;;;3.60;3.03;;;8.50;99.90;;;;;;4998168;28;20491;-80
2023/11/17 08:17:25;;;;;;;4.70;3.20;;;8.60;99.90;;;;;;4995621;28;20460;-78
2023/11/17 08:19:51;;;;;;;2.50;1.97;;;8.50;99.90;;;;;;4993998;28;20573;-77
2023/11/17 08:22:17;;;;;;;5.63;3.67;;;8.30;99.90;;;;;;4994269;28;20454;-76
2023/11/17 08:24:42;;;;;;;3.60;3.17;;;8.10;99.90;;;;;;5017128;28;20166;-76
2023/11/17 08:27:08;;;;;;;3.80;2.90;;;8.40;99.90;;;;;;5014602;28;20171;-77
2023/11/17 08:29:33;;;;;;;3.67;3.20;;;8.60;99.90;;;;;;5015379;28;20189;-75
2023/11/17 08:31:59;;;;;;;5.10;3.50;;;8.40;99.90;;;;;;4981997;28;20227;-76
2023/11/17 08:34:25;;;;;;;4.00;3.23;;;8.50;99.90;;;;;;5010944;28;20195;-75
2023/11/17 08:36:51;;;;;;;5.30;3.57;;;8.70;99.90;;;;;;5016866;28;20178;-76
2023/11/17 08:39:25;;;;;;;5.23;4.10;;;8.80;99.90;;;;;;5017965;28;20448;-77
2023/11/17 08:41:54;;;;;;;5.10;4.23;;;8.70;99.90;;;;;;5001551;28;20259;-78
2023/11/17 08:44:20;;;;;;;8.70;5.17;;;8.60;99.90;;;;;;4991318;28;20424;-79
2023/11/17 08:46:46;;;;;;;5.97;4.13;;;8.60;99.90;;;;;;5020490;28;20938;-78
2023/11/17 08:49:12;;;;;;;4.43;3.93;;;8.60;99.90;;;;;;5005380;28;20421;-77
2023/11/17 08:51:37;;;;;;;6.60;4.60;;;8.60;99.90;;;;;;5011699;28;20157;-78
2023/11/17 08:54:03;;;;;;;6.80;4.30;;;8.70;99.90;;;;;;4990842;28;20173;-78
2023/11/17 08:56:29;;;;;;;5.70;3.70;;;8.90;99.90;;;;;;5017121;28;20215;-76
2023/11/17 08:58:54;;;;;;;7.53;4.83;;;8.90;99.90;;;;;;5017208;28;20828;-76
2023/11/17 09:01:23;;;;;;;6.10;3.43;;;8.60;99.90;;;;;;5016942;28;20683;-76
2023/11/17 09:03:49;;;;;;;5.57;3.90;;;8.90;99.90;;;;;;5009082;28;20163;-74
2023/11/17 09:06:15;;;;;;;4.10;3.60;;;9.00;99.90;;;;;;4997342;28;20408;-74
2023/11/17 09:08:41;;;;;;;5.23;3.93;;;9.10;99.90;;;;;;4996714;28;20430;-74
2023/11/17 09:11:08;;;;;;;6.63;3.90;;;9.00;99.90;;;;;;4996672;28;20195;-74
2023/11/17 09:13:33;;;;;;;4.00;3.60;;;9.00;99.90;;;;;;5002703;28;20166;-74
2023/11/17 09:15:59;;;;;;;2.77;2.47;;;9.20;99.90;;;;;;4998973;28;20417;-74
2023/11/17 09:18:25;;;;;;;10.10;3.47;;;9.30;99.90;;;;;;5016376;28;20184;-76
2023/11/17 09:20:50;;;;;;;3.23;1.87;;;9.40;99.90;;;;;;5015982;28;20271;-76
2023/11/17 09:23:17;;;;;;;3.47;2.10;;;9.40;99.90;;;;;;5012677;28;20641;-75
2023/11/17 09:25:43;;;;;;;2.40;2.20;;;9.30;99.90;;;;;;4998574;28;20161;-75
2023/11/17 09:28:08;;;;;;;2.00;1.80;;;9.40;99.90;;;;;;4996359;28;20703;-72
2023/11/17 09:30:37;;;;;;;2.10;1.90;;;9.40;99.90;;;;;;4996044;28;20543;-76
2023/11/17 09:33:02;;;;;;;3.20;1.67;;;9.50;99.90;;;;;;4997420;28;20463;-76
2023/11/17 09:35:28;;;;;;;3.40;1.70;;;9.60;99.90;;;;;;5015803;28;20447;-72
2023/11/17 09:37:59;;;;;;;2.20;2.00;;;9.50;99.90;;;;;;5016064;28;20197;-77
2023/11/17 09:40:26;;;;;;;1.60;1.50;;;9.60;99.90;;;;;;5038282;23;20222;-73
2023/11/17 09:42:57;;;;;;;1.23;1.10;;;9.40;99.90;;;;;;5015632;28;20405;-76
2023/11/17 09:45:28;;;;;;;2.33;1.90;;;9.30;99.90;;;;;;5014419;28;20469;-73
2023/11/17 09:47:57;;;;;;;4.47;1.63;;;9.40;99.90;;;;;;5015574;28;20405;-75
2023/11/17 09:50:27;;;;;;;3.00;1.90;;;9.40;99.90;;;;;;5015631;28;20433;-73
2023/11/17 09:52:53;;;;;;;1.50;1.30;;;9.50;99.90;;;;;;5015488;28;20775;-74
2023/11/17 09:55:23;;;;;;;1.53;1.43;;;9.50;99.90;;;;;;5035076;28;20413;-72
2023/11/17 09:57:54;;;;;;;1.70;1.50;;;9.40;99.90;;;;;;5035678;28;20405;-73
2023/11/17 10:00:21;;;;;;;1.50;1.33;;;9.60;99.90;;;;;;5035300;28;20452;-74
2023/11/17 10:03:02;;;;;;;1.47;1.20;;;9.50;99.90;;;;;;5035349;28;20488;-73
2023/11/17 10:05:33;;;;;;;1.63;1.53;;;9.50;99.90;;;;;;4995961;28;20386;-74
2023/11/17 10:08:07;;;;;;;1.27;1.03;;;9.60;99.90;;;;;;4994550;28;20414;-73
2023/11/17 10:10:37;;;;;;;2.10;1.40;;;9.70;99.90;;;;;;4995635;28;20434;-73
2023/11/17 10:13:11;;;;;;;1.37;1.27;;;9.50;99.90;;;;;;5007152;28;20450;-73
2023/11/17 10:15:44;;;;;;;2.60;1.53;;;9.70;99.90;;;;;;5035227;28;20864;-73
2023/11/17 10:18:14;;;;;;;3.43;2.50;;;9.80;99.90;;;;;;5035404;28;20761;-71
2023/11/17 10:20:41;;;;;;;1.50;1.40;;;9.90;99.90;;;;;;5035279;28;20449;-75
2023/11/17 10:23:07;;;;;;;1.70;1.30;;;9.70;99.90;;;;;;5033547;28;20780;-74
2023/11/17 10:25:34;;;;;;;1.30;1.20;;;9.70;99.90;;;;;;5015321;28;20499;-74
2023/11/17 10:28:02;;;;;;;2.60;1.60;;;9.60;99.90;;;;;;5016137;28;20177;-74
2023/11/17 10:30:30;;;;;;;2.17;1.40;;;9.50;99.90;;;;;;5034983;28;20443;-74
2023/11/17 10:33:02;;;;;;;1.70;1.30;;;9.40;99.90;;;;;;5035173;28;20734;-73
2023/11/17 10:35:31;;;;;;;2.13;1.53;;;9.10;99.90;;;;;;4995593;28;20385;-72
2023/11/17 10:37:58;;;;;;;1.63;1.27;;;9.30;99.90;;;;;;4993766;28;20414;-72
2023/11/17 10:40:31;;;;;;;1.73;1.60;;;9.30;99.90;;;;;;5014301;28;20464;-73
2023/11/17 10:43:11;;;;;;;2.47;1.50;;;9.00;99.90;;;;;;5014988;28;20411;-72
2023/11/17 10:45:47;;;;;;;1.97;1.43;;;9.20;99.90;;;;;;4995216;28;20457;-72
2023/11/17 10:48:13;;;;;;;2.47;1.93;;;9.20;99.90;;;;;;4995227;28;20789;-71
2023/11/17 10:50:43;;;;;;;1.43;1.20;;;9.20;99.90;;;;;;4993558;28;20429;-74
2023/11/17 10:53:20;;;;;;;2.30;1.30;;;9.10;99.90;;;;;;4995913;28;20428;-73
2023/11/17 10:55:48;;;;;;;1.93;1.70;;;9.20;99.90;;;;;;5034581;28;20380;-75
2023/11/17 10:58:15;;;;;;;3.13;1.83;;;9.10;99.90;;;;;;5034575;28;20428;-75
2023/11/17 11:00:42;;;;;;;1.40;1.30;;;9.20;99.90;;;;;;5034163;28;20449;-73
2023/11/17 11:03:10;;;;;;;1.77;1.50;;;9.40;99.90;;;;;;5033218;28;20407;-75
2023/11/17 11:05:38;;;;;;;1.60;1.40;;;9.40;99.90;;;;;;5015002;28;20415;-74
2023/11/17 11:08:11;;;;;;;1.43;1.30;;;9.20;99.90;;;;;;5014485;28;20540;-75
2023/11/17 11:10:37;;;;;;;1.87;1.50;;;9.20;99.90;;;;;;5014383;28;20957;-75
2023/11/17 11:13:04;;;;;;;1.67;1.23;;;9.30;99.90;;;;;;5026397;28;20830;-73
2023/11/17 11:15:34;;;;;;;1.40;1.10;;;9.30;99.90;;;;;;5033906;28;20927;-71
2023/11/17 11:18:06;;;;;;;3.53;1.30;;;9.60;99.90;;;;;;5034022;28;20408;-72
2023/11/17 11:20:33;;;;;;;1.20;1.10;;;9.50;99.90;;;;;;5033874;28;20460;-72
2023/11/17 11:23:01;;;;;;;1.50;1.40;;;9.50;99.90;;;;;;5020296;28;20435;-72
2023/11/17 11:25:28;;;;;;;2.50;1.70;;;9.50;99.90;;;;;;5013932;28;20411;-71
2023/11/17 11:27:57;;;;;;;1.70;1.30;;;9.60;99.90;;;;;;5013865;28;20401;-72
2023/11/17 11:30:23;;;;;;;1.87;1.20;;;9.60;99.90;;;;;;5013919;28;20516;-71
2023/11/17 11:32:48;;;;;;;1.97;1.50;;;9.40;99.90;;;;;;5025469;28;20486;-71
2023/11/17 11:35:17;;;;;;;1.40;0.93;;;9.40;99.90;;;;;;5033535;28;20514;-73
2023/11/17 11:37:43;;;;;;;1.93;1.20;;;9.40;99.90;;;;;;5033527;28;20173;-72
2023/11/17 11:40:12;;;;;;;1.80;0.93;;;9.60;99.90;;;;;;5034055;28;20455;-73
2023/11/17 11:42:42;;;;;;;1.23;1.13;;;9.50;99.90;;;;;;5023084;28;20164;-75
2023/11/17 11:45:09;;;;;;;3.10;0.90;;;9.60;99.90;;;;;;5013440;28;20401;-72
2023/11/17 11:47:36;;;;;;;1.43;1.20;;;9.60;99.90;;;;;;5013878;28;20411;-76
2023/11/17 11:50:03;;;;;;;1.47;1.20;;;9.60;99.90;;;;;;5013597;28;20425;-75
2023/11/17 11:52:38;;;;;;;1.73;1.43;;;9.60;99.90;;;;;;5022563;28;20420;-77
2023/11/17 11:55:06;;;;;;;1.30;1.20;;;9.70;99.90;;;;;;5033652;28;20488;-75
2023/11/17 11:57:34;;;;;;;1.20;1.00;;;9.50;99.90;;;;;;5033389;28;20750;-70
2023/11/17 12:00:20;;;;;;;1.27;0.80;;;9.30;99.90;;;;;;5032898;28;20925;-72
2023/11/17 12:02:59;;;;;;;1.73;1.10;;;9.20;99.90;;;;;;5022016;28;20401;-72
2023/11/17 12:05:30;;;;;;;1.50;0.80;;;9.60;99.90;;;;;;5013155;28;20385;-71
2023/11/17 12:08:03;;;;;;;1.67;1.37;;;9.70;99.90;;;;;;5013380;28;20415;-75
2023/11/17 12:10:43;;;;;;;2.10;1.00;;;9.60;99.90;;;;;;5014623;28;20424;-75
2023/11/17 12:13:48;;;;;;;1.47;1.37;;;9.50;99.90;;;;;;5021977;28;20417;-76
2023/11/17 12:16:18;;;;;;;2.47;1.20;;;9.60;99.90;;;;;;5013696;28;20444;-77
2023/11/17 12:18:48;;;;;;;1.20;1.10;;;9.60;99.90;;;;;;5013656;28;20424;-73
2023/11/17 12:21:19;;;;;;;2.57;1.00;;;9.70;99.90;;;;;;5023763;28;20448;-76
2023/11/17 12:23:48;;;;;;;1.53;1.10;;;9.70;99.90;;;;;;5014100;28;20412;-76
2023/11/17 12:26:15;;;;;;;1.63;0.90;;;9.60;99.90;;;;;;5013467;28;20404;-75
2023/11/17 12:28:44;;;;;;;1.50;1.00;;;9.60;99.90;;;;;;5013089;28;20409;-75
2023/11/17 12:31:14;;;;;;;1.50;1.23;;;9.50;99.90;;;;;;5012855;28;20436;-72
2023/11/17 12:33:46;;;;;;;1.50;1.17;;;9.70;99.90;;;;;;5015807;28;20411;-74
2023/11/17 12:36:15;;;;;;;1.20;1.00;;;9.60;99.90;;;;;;5013525;28;20521;-73
2023/11/17 12:38:44;;;;;;;2.90;1.37;;;9.40;99.90;;;;;;5013311;28;20475;-73
2023/11/17 12:41:13;;;;;;;1.00;0.83;;;9.60;99.90;;;;;;5012942;28;20532;-75
2023/11/17 12:43:40;;;;;;;1.87;1.20;;;9.90;99.90;;;;;;5030946;28;20406;-72
2023/11/17 12:46:09;;;;;;;1.00;0.90;;;9.90;99.90;;;;;;5032828;28;20412;-71
2023/11/17 12:48:38;;;;;;;1.30;0.93;;;10.00;99.90;;;;;;5032684;28;20404;-72
2023/11/17 12:51:05;;;;;;;0.90;0.70;;;10.10;99.90;;;;;;5032876;28;20521;-72
2023/11/17 12:53:42;;;;;;;0.80;0.70;;;9.80;99.90;;;;;;5016066;28;20413;-72
2023/11/17 12:56:08;;;;;;;1.50;1.17;;;9.60;99.90;;;;;;5013169;28;20420;-72
2023/11/17 12:58:35;;;;;;;1.00;0.70;;;9.40;99.90;;;;;;5014022;28;20409;-72
2023/11/17 13:01:16;;;;;;;1.10;1.00;;;9.40;99.90;;;;;;5016565;28;20821;-72
2023/11/17 13:03:46;;;;;;;0.90;0.67;;;9.40;99.90;;;;;;5031038;28;20402;-72